createdAt,value
2022-09-06T00:00:18.090Z,84.99
2022-09-06T00:02:45.398Z,85.11
2022-09-06T00:05:13.381Z,84.98
2022-09-06T00:07:40.544Z,85.28
2022-09-06T00:10:08.436Z,85.27
2022-09-06T00:12:36.073Z,85.36
2022-09-06T00:15:04.242Z,85.50
2022-09-06T00:17:33.239Z,84.89
2022-09-06T00:20:00.092Z,85.33
2022-09-06T00:22:26.967Z,85.19
2022-09-06T00:24:53.731Z,85.23
2022-09-06T00:27:20.540Z,85.23
2022-09-06T00:29:47.345Z,85.46
2022-09-06T00:32:14.190Z,85.48
2022-09-06T00:34:40.986Z,85.60
2022-09-06T00:37:07.773Z,85.54
2022-09-06T00:39:35.411Z,85.71
2022-09-06T00:42:02.212Z,85.64
2022-09-06T00:44:29.051Z,85.57
2022-09-06T00:46:56.247Z,85.58
2022-09-06T00:49:41.822Z,85.67
2022-09-06T00:52:12.631Z,85.67
2022-09-06T00:54:40.625Z,85.57
2022-09-06T00:57:07.984Z,85.61
2022-09-06T00:59:38.198Z,85.62
2022-09-06T01:02:05.871Z,85.51
2022-09-06T01:04:33.666Z,85.82
2022-09-06T01:07:14.173Z,85.93
2022-09-06T01:10:30.155Z,85.95
2022-09-06T01:13:57.416Z,86.15
2022-09-06T01:16:32.808Z,85.95
2022-09-06T01:19:17.821Z,85.87
2022-09-06T01:22:17.996Z,85.98
2022-09-06T01:25:39.089Z,85.71
2022-09-06T01:28:22.061Z,85.87
2022-09-06T01:31:02.890Z,86.06
2022-09-06T01:33:44.939Z,85.92
2022-09-06T01:36:18.762Z,86.15
2022-09-06T01:38:46.079Z,86.32
2022-09-06T01:41:12.880Z,86.14
2022-09-06T01:43:45.157Z,86.04
2022-09-06T01:47:05.611Z,86.08
2022-09-06T01:50:20.959Z,86.13
2022-09-06T01:53:25.299Z,86.01
2022-09-06T01:56:17.675Z,86.00
2022-09-06T01:59:14.225Z,85.98
2022-09-06T02:02:27.090Z,85.98
2022-09-06T02:05:05.450Z,85.87
2022-09-06T02:07:35.748Z,86.01
2022-09-06T02:10:22.959Z,85.87
2022-09-06T02:12:55.113Z,85.99
2022-09-06T02:15:28.811Z,85.98
2022-09-06T02:18:13.339Z,86.08
2022-09-06T02:20:51.957Z,86.14
2022-09-06T02:23:21.493Z,86.36
2022-09-06T02:25:54.827Z,86.46
2022-09-06T02:28:22.974Z,86.35
2022-09-06T02:30:54.722Z,86.39
2022-09-06T02:33:29.484Z,86.67
2022-09-06T02:35:56.868Z,86.49
2022-09-06T02:38:26.448Z,86.34
2022-09-06T02:40:55.235Z,86.34
2022-09-06T02:43:22.020Z,86.23
2022-09-06T02:45:49.026Z,86.29
2022-09-06T02:48:15.891Z,86.25
2022-09-06T02:50:42.675Z,86.30
2022-09-06T02:53:12.835Z,86.52
2022-09-06T02:55:39.910Z,86.66
2022-09-06T02:58:09.955Z,86.92
2022-09-06T03:00:37.921Z,86.88
2022-09-06T03:03:05.244Z,87.08
2022-09-06T03:05:32.256Z,87.31
2022-09-06T03:07:59.463Z,87.53
2022-09-06T03:10:26.539Z,87.78
2022-09-06T03:12:54.053Z,88.05
2022-09-06T03:15:20.902Z,87.90
2022-09-06T03:17:47.746Z,87.95
2022-09-06T03:20:14.835Z,87.95
2022-09-06T03:22:42.394Z,87.97
2022-09-06T03:25:11.200Z,87.96
2022-09-06T03:27:38.331Z,88.76
2022-09-06T03:30:07.291Z,88.91
2022-09-06T03:32:34.393Z,89.00
2022-09-06T03:35:01.277Z,89.39
2022-09-06T03:37:28.503Z,89.10
2022-09-06T03:39:55.411Z,89.08
2022-09-06T03:42:22.645Z,89.73
2022-09-06T03:44:49.468Z,89.53
2022-09-06T03:47:19.407Z,89.82
2022-09-06T03:49:47.203Z,90.13
2022-09-06T03:52:14.660Z,90.01
2022-09-06T03:54:41.464Z,90.03
2022-09-06T03:57:08.311Z,90.02
2022-09-06T03:59:35.681Z,90.36
2022-09-06T04:02:03.005Z,90.22
2022-09-06T04:04:30.332Z,90.40
2022-09-06T04:06:57.159Z,90.48
2022-09-06T04:09:24.206Z,90.39
2022-09-06T04:11:51.154Z,90.42
2022-09-06T04:14:18.036Z,90.37
2022-09-06T04:16:44.877Z,90.31
2022-09-06T04:19:11.884Z,89.99
2022-09-06T04:21:39.015Z,90.05
2022-09-06T04:24:05.931Z,90.02
2022-09-06T04:26:33.167Z,89.96
2022-09-06T04:29:00.178Z,90.27
2022-09-06T04:31:27.599Z,90.14
2022-09-06T04:33:54.419Z,89.87
2022-09-06T04:36:21.770Z,90.02
2022-09-06T04:38:48.556Z,89.92
2022-09-06T04:41:17.536Z,90.13
2022-09-06T04:43:45.071Z,90.07
2022-09-06T04:46:25.180Z,89.93
2022-09-06T04:48:54.002Z,90.35
2022-09-06T04:51:22.061Z,90.15
2022-09-06T04:53:49.109Z,90.20
2022-09-06T04:56:23.212Z,90.23
2022-09-06T04:58:51.728Z,90.47
2022-09-06T05:01:19.135Z,90.84
2022-09-06T05:03:47.145Z,90.84
2022-09-06T05:06:21.650Z,90.96
2022-09-06T05:08:49.484Z,91.20
2022-09-06T05:11:17.483Z,91.08
2022-09-06T05:13:47.397Z,91.09
2022-09-06T05:16:14.660Z,90.96
2022-09-06T05:18:41.585Z,91.08
2022-09-06T05:21:08.435Z,91.15
2022-09-06T05:23:35.445Z,91.05
2022-09-06T05:26:02.663Z,91.09
2022-09-06T05:28:29.990Z,90.83
2022-09-06T05:31:10.170Z,91.02
2022-09-06T05:33:37.163Z,90.78
2022-09-06T05:36:07.619Z,90.99
2022-09-06T05:38:34.444Z,90.97
2022-09-06T05:41:01.417Z,90.74
2022-09-06T05:43:28.207Z,91.34
2022-09-06T05:45:55.084Z,90.95
2022-09-06T05:48:21.995Z,91.25
2022-09-06T05:50:48.828Z,91.10
2022-09-06T05:53:15.619Z,90.94
2022-09-06T05:55:43.249Z,90.95
2022-09-06T05:58:10.156Z,90.89
2022-09-06T06:00:37.039Z,90.82
2022-09-06T06:03:03.800Z,90.76
2022-09-06T06:05:30.620Z,90.85
2022-09-06T06:07:59.097Z,90.89
2022-09-06T06:10:26.055Z,91.25
2022-09-06T06:12:52.888Z,90.99
2022-09-06T06:15:19.691Z,90.89
2022-09-06T06:17:46.455Z,91.21
2022-09-06T06:20:13.414Z,91.17
2022-09-06T06:22:40.197Z,91.16
2022-09-06T06:25:07.526Z,91.08
2022-09-06T06:27:35.523Z,91.55
2022-09-06T06:30:02.310Z,91.04
2022-09-06T06:32:29.100Z,91.36
2022-09-06T06:34:55.882Z,91.40
2022-09-06T06:37:22.747Z,91.37
2022-09-06T06:39:49.732Z,91.17
2022-09-06T06:42:16.614Z,91.15
2022-09-06T06:44:43.452Z,91.01
2022-09-06T06:47:10.245Z,91.15
2022-09-06T06:49:37.035Z,91.12
2022-09-06T06:52:04.025Z,91.34
2022-09-06T06:54:31.213Z,91.11
2022-09-06T06:56:58.017Z,91.20
2022-09-06T06:59:24.850Z,90.92
2022-09-06T07:01:51.929Z,90.97
2022-09-06T07:04:18.798Z,90.99
2022-09-06T07:12:30.453Z,90.54
2022-09-06T07:14:57.238Z,90.57
2022-09-06T07:17:24.046Z,90.51
2022-09-06T07:22:39.662Z,90.59
2022-09-06T07:25:08.452Z,90.77
2022-09-06T07:27:51.015Z,90.63
2022-09-06T07:30:20.391Z,90.49
2022-09-06T07:32:48.227Z,90.47
2022-09-06T07:35:15.208Z,90.39
2022-09-06T07:37:42.331Z,90.62
2022-09-06T07:40:10.412Z,90.78
2022-09-06T07:42:37.372Z,90.70
2022-09-06T07:45:05.649Z,90.90
2022-09-06T07:53:09.525Z,90.46
2022-09-06T07:55:39.821Z,90.39
2022-09-06T07:58:06.599Z,89.98
2022-09-06T08:00:33.550Z,89.69
2022-09-06T08:03:00.354Z,89.71
2022-09-06T08:11:01.247Z,90.26
2022-09-06T08:13:28.152Z,90.09
2022-09-06T08:16:07.543Z,90.07
2022-09-06T08:18:38.391Z,90.24
2022-09-06T08:21:12.601Z,90.31
2022-09-06T08:23:52.548Z,90.25
2022-09-06T08:26:21.556Z,89.65
2022-09-06T08:28:48.951Z,89.72
2022-09-06T08:31:18.130Z,89.49
2022-09-06T08:33:45.073Z,88.97
2022-09-06T08:36:12.315Z,88.71
2022-09-06T08:38:39.495Z,88.55
2022-09-06T08:41:15.294Z,87.59
2022-09-06T08:47:13.685Z,86.80
2022-09-06T08:49:47.379Z,87.19
2022-09-06T08:52:24.384Z,87.34
2022-09-06T08:55:06.394Z,87.13
2022-09-06T08:57:52.655Z,86.46
2022-09-06T09:00:20.828Z,86.50
2022-09-06T09:02:55.368Z,86.42
2022-09-06T09:05:28.447Z,85.92
2022-09-06T09:08:27.440Z,85.92
2022-09-06T09:11:07.951Z,85.66
2022-09-06T09:13:55.686Z,85.94
2022-09-06T09:16:23.544Z,85.31
2022-09-06T09:18:55.511Z,85.37
2022-09-06T09:21:30.437Z,85.39
2022-09-06T09:24:03.720Z,85.32
2022-09-06T09:26:39.817Z,84.73
2022-09-06T09:29:11.673Z,85.05
2022-09-06T09:31:53.616Z,84.71
2022-09-06T09:34:39.853Z,84.72
2022-09-06T09:40:07.797Z,84.20
2022-09-06T09:42:37.817Z,83.43
2022-09-06T09:45:24.827Z,82.54
2022-09-06T09:47:52.111Z,83.31
2022-09-06T09:50:32.592Z,82.78
2022-09-06T09:53:15.794Z,83.01
2022-09-06T09:55:44.249Z,83.08
2022-09-06T09:58:37.494Z,81.58
2022-09-06T10:01:23.219Z,81.00
2022-09-06T10:09:37.534Z,77.55
2022-09-06T10:12:05.094Z,78.34
2022-09-06T10:14:44.322Z,78.30
2022-09-06T10:17:30.988Z,77.77
2022-09-06T10:20:04.199Z,75.82
2022-09-06T10:22:40.189Z,75.92
2022-09-06T10:25:15.960Z,75.99
2022-09-06T10:28:13.256Z,76.41
2022-09-06T10:30:58.115Z,75.94
2022-09-06T10:33:46.136Z,75.37
2022-09-06T10:36:26.398Z,74.96
2022-09-06T10:39:00.369Z,74.25
2022-09-06T10:41:48.916Z,73.26
2022-09-06T10:44:35.199Z,73.42
2022-09-06T10:47:13.561Z,74.45
2022-09-06T10:49:46.131Z,73.90
2022-09-06T10:52:26.936Z,74.08
2022-09-06T10:55:02.302Z,74.08
2022-09-06T11:00:49.553Z,73.70
2022-09-06T11:06:25.503Z,73.02
2022-09-06T11:09:47.599Z,73.64
2022-09-06T11:12:33.397Z,73.83
2022-09-06T11:15:03.740Z,73.79
2022-09-06T11:17:47.735Z,73.10
2022-09-06T11:20:31.377Z,73.54
2022-09-06T11:23:29.521Z,74.14
2022-09-06T11:26:05.426Z,73.71
2022-09-06T11:28:37.760Z,73.61
2022-09-06T11:31:05.927Z,73.49
2022-09-06T11:33:36.575Z,73.30
2022-09-06T11:36:40.896Z,73.39
2022-09-06T11:39:09.696Z,73.16
2022-09-06T11:41:41.533Z,73.00
2022-09-06T11:44:10.703Z,72.22
2022-09-06T11:46:38.935Z,72.34
2022-09-06T11:49:29.861Z,71.62
2022-09-06T11:51:56.696Z,69.78
2022-09-06T11:54:35.095Z,68.05
2022-09-06T11:57:13.148Z,68.36
2022-09-06T11:59:46.129Z,66.99
2022-09-06T12:02:41.083Z,65.71
2022-09-06T12:05:14.077Z,66.34
2022-09-06T12:08:24.944Z,65.65
2022-09-06T12:11:30.562Z,64.92
2022-09-06T12:14:03.847Z,65.40
2022-09-06T12:16:58.638Z,65.17
2022-09-06T12:20:06.208Z,65.24
2022-09-06T12:22:33.360Z,63.88
2022-09-06T12:25:24.598Z,62.83
2022-09-06T12:28:03.384Z,63.04
2022-09-06T12:30:37.437Z,63.64
2022-09-06T12:33:22.583Z,62.00
2022-09-06T12:35:58.631Z,63.05
2022-09-06T12:38:26.429Z,63.09
2022-09-06T12:40:58.610Z,63.56
2022-09-06T12:43:26.571Z,63.24
2022-09-06T12:45:53.663Z,62.48
2022-09-06T12:48:36.258Z,61.46
2022-09-06T12:51:06.942Z,61.89
2022-09-06T12:53:35.117Z,61.69
2022-09-06T12:56:10.280Z,61.53
2022-09-06T12:58:38.867Z,60.65
2022-09-06T13:01:26.372Z,60.56
2022-09-06T13:04:13.034Z,60.83
2022-09-06T13:06:43.649Z,59.22
2022-09-06T13:09:15.620Z,58.91
2022-09-06T13:11:51.966Z,59.19
2022-09-06T13:14:28.334Z,57.44
2022-09-06T13:16:58.420Z,57.48
2022-09-06T13:19:40.696Z,55.93
2022-09-06T13:22:11.298Z,56.94
2022-09-06T13:24:47.025Z,57.23
2022-09-06T13:27:38.554Z,56.85
2022-09-06T13:30:09.508Z,57.23
2022-09-06T13:32:46.185Z,57.60
2022-09-06T13:35:24.022Z,57.17
2022-09-06T13:37:51.115Z,57.59
2022-09-06T13:41:08.994Z,57.33
2022-09-06T13:43:29.450Z,56.15
2022-09-06T13:46:08.429Z,56.12
2022-09-06T13:48:36.057Z,57.05
2022-09-06T13:51:09.779Z,57.40
2022-09-06T13:53:36.726Z,57.42
2022-09-06T13:56:03.920Z,56.94
2022-09-06T13:58:30.821Z,56.46
2022-09-06T14:00:58.779Z,55.25
2022-09-06T14:03:31.250Z,55.30
2022-09-06T14:06:00.591Z,55.73
2022-09-06T14:08:49.267Z,55.60
2022-09-06T14:11:18.597Z,55.56
2022-09-06T14:13:46.031Z,54.75
2022-09-06T14:16:12.970Z,55.11
2022-09-06T14:18:40.684Z,54.62
2022-09-06T14:21:07.969Z,54.53
2022-09-06T14:23:34.817Z,54.28
2022-09-06T14:26:04.126Z,53.58
2022-09-06T14:28:33.723Z,54.35
2022-09-06T14:31:13.009Z,54.66
2022-09-06T14:33:39.990Z,55.33
2022-09-06T14:36:12.484Z,55.30
2022-09-06T14:38:41.828Z,55.06
2022-09-06T14:41:09.911Z,55.65
2022-09-06T14:43:37.988Z,56.42
2022-09-06T14:46:14.426Z,57.09
2022-09-06T14:48:43.076Z,57.79
2022-09-06T14:51:22.136Z,57.06
2022-09-06T14:53:56.329Z,57.44
2022-09-06T14:56:23.928Z,57.39
2022-09-06T14:58:50.808Z,57.73
2022-09-06T15:01:21.582Z,57.43
2022-09-06T15:03:52.382Z,56.88
2022-09-06T15:06:22.195Z,56.74
2022-09-06T15:08:50.373Z,56.93
2022-09-06T15:11:40.333Z,56.13
2022-09-06T15:14:13.529Z,56.24
2022-09-06T15:16:40.355Z,56.14
2022-09-06T15:19:08.037Z,55.33
2022-09-06T15:21:34.963Z,56.13
2022-09-06T15:24:03.219Z,56.11
2022-09-06T15:26:30.651Z,55.84
2022-09-06T15:28:57.570Z,55.32
2022-09-06T15:31:24.543Z,55.43
2022-09-06T15:33:52.224Z,55.71
2022-09-06T15:36:19.263Z,55.91
2022-09-06T15:38:51.084Z,55.97
2022-09-06T15:41:22.805Z,56.30
2022-09-06T15:43:52.830Z,56.55
2022-09-06T15:46:41.002Z,56.77
2022-09-06T15:49:10.189Z,56.89
2022-09-06T15:51:38.991Z,57.05
2022-09-06T15:54:07.166Z,57.33
2022-09-06T15:56:34.284Z,57.43
2022-09-06T15:59:01.418Z,57.63
2022-09-06T16:01:28.522Z,57.90
2022-09-06T16:04:03.816Z,58.44
2022-09-06T16:06:42.168Z,58.86
2022-09-06T16:09:14.364Z,58.21
2022-09-06T16:11:42.333Z,58.14
2022-09-06T16:14:13.263Z,57.63
2022-09-06T16:16:41.927Z,56.72
2022-09-06T16:19:10.174Z,56.20
2022-09-06T16:21:39.786Z,55.52
2022-09-06T16:24:10.207Z,55.08
2022-09-06T16:26:41.219Z,55.28
2022-09-06T16:29:10.094Z,55.26
2022-09-06T16:31:40.233Z,55.51
2022-09-06T16:34:09.950Z,55.86
2022-09-06T16:36:37.557Z,54.70
2022-09-06T16:39:05.346Z,54.84
2022-09-06T16:41:39.567Z,53.13
2022-09-06T16:44:16.626Z,53.54
2022-09-06T16:46:50.055Z,52.75
2022-09-06T16:49:17.890Z,52.40
2022-09-06T16:51:46.005Z,52.50
2022-09-06T16:54:14.123Z,52.36
2022-09-06T16:56:41.658Z,52.58
2022-09-06T16:59:10.448Z,52.71
2022-09-06T17:01:42.028Z,52.23
2022-09-06T17:04:09.993Z,52.70
2022-09-06T17:06:44.964Z,52.78
2022-09-06T17:09:16.194Z,53.24
2022-09-06T17:11:43.107Z,53.65
2022-09-06T17:14:10.118Z,53.95
2022-09-06T17:16:55.771Z,53.80
2022-09-06T17:19:22.711Z,54.09
2022-09-06T17:21:50.202Z,54.10
2022-09-06T17:24:17.017Z,53.63
2022-09-06T17:26:43.886Z,52.87
2022-09-06T17:29:11.055Z,52.81
2022-09-06T17:31:38.234Z,53.00
2022-09-06T17:34:05.451Z,53.61
2022-09-06T17:36:33.951Z,53.63
2022-09-06T17:39:04.626Z,53.17
2022-09-06T17:41:46.141Z,53.45
2022-09-06T17:44:17.008Z,53.24
2022-09-06T17:47:02.662Z,52.29
2022-09-06T17:49:31.767Z,52.45
2022-09-06T17:51:58.636Z,52.42
2022-09-06T17:54:25.925Z,52.23
2022-09-06T17:56:53.014Z,52.45
2022-09-06T17:59:19.972Z,52.77
2022-09-06T18:01:47.039Z,52.96
2022-09-06T18:04:14.898Z,52.83
2022-09-06T18:06:43.714Z,53.21
2022-09-06T18:09:15.589Z,53.55
2022-09-06T18:11:46.056Z,53.54
2022-09-06T18:14:17.797Z,53.63
2022-09-06T18:16:47.406Z,53.66
2022-09-06T18:19:15.456Z,53.91
2022-09-06T18:21:42.772Z,53.96
2022-09-06T18:24:10.850Z,54.42
2022-09-06T18:26:37.823Z,54.48
2022-09-06T18:29:08.523Z,55.02
2022-09-06T18:31:35.921Z,55.20
2022-09-06T18:34:02.776Z,55.54
2022-09-06T18:36:32.414Z,55.90
2022-09-06T18:39:05.066Z,56.02
2022-09-06T18:41:52.199Z,56.25
2022-09-06T18:44:19.232Z,56.41
2022-09-06T18:46:46.324Z,56.73
2022-09-06T18:49:15.291Z,57.01
2022-09-06T18:51:43.769Z,57.18
2022-09-06T18:54:11.264Z,57.47
2022-09-06T18:56:38.687Z,57.80
2022-09-06T18:59:06.240Z,57.90
2022-09-06T19:01:35.234Z,58.11
2022-09-06T19:04:04.094Z,58.20
2022-09-06T19:06:33.507Z,58.49
2022-09-06T19:09:08.367Z,58.69
2022-09-06T19:11:36.084Z,58.60
2022-09-06T19:14:04.408Z,58.99
2022-09-06T19:16:32.088Z,59.11
2022-09-06T19:19:08.560Z,59.19
2022-09-06T19:21:41.016Z,59.67
2022-09-06T19:24:10.919Z,59.76
2022-09-06T19:26:41.684Z,59.94
2022-09-06T19:29:14.851Z,60.03
2022-09-06T19:31:42.759Z,60.43
2022-09-06T19:34:10.077Z,60.92
2022-09-06T19:36:36.913Z,61.58
2022-09-06T19:39:10.318Z,61.79
2022-09-06T19:41:43.099Z,62.05
2022-09-06T19:44:11.336Z,62.32
2022-09-06T19:46:39.456Z,62.53
2022-09-06T19:49:09.436Z,62.54
2022-09-06T19:51:37.304Z,62.83
2022-09-06T19:54:05.158Z,62.96
2022-09-06T19:56:35.060Z,63.14
2022-09-06T19:59:08.050Z,63.45
2022-09-06T20:01:37.758Z,63.58
2022-09-06T20:04:08.200Z,63.69
2022-09-06T20:06:36.100Z,63.99
2022-09-06T20:09:06.751Z,63.89
2022-09-06T20:11:36.171Z,63.93
2022-09-06T20:14:03.378Z,63.98
2022-09-06T20:16:30.796Z,64.21
2022-09-06T20:19:01.745Z,64.37
2022-09-06T20:21:29.742Z,64.26
2022-09-06T20:23:59.498Z,64.53
2022-09-06T20:26:29.562Z,64.75
2022-09-06T20:28:59.864Z,64.82
2022-09-06T20:31:29.343Z,65.02
2022-09-06T20:33:58.243Z,65.59
2022-09-06T20:36:25.521Z,65.71
2022-09-06T20:38:52.432Z,65.82
2022-09-06T20:41:23.651Z,66.49
2022-09-06T20:43:59.274Z,66.89
2022-09-06T20:46:29.605Z,67.36
2022-09-06T20:48:59.904Z,67.54
2022-09-06T20:51:26.895Z,67.50
2022-09-06T20:53:56.887Z,67.63
2022-09-06T20:56:35.241Z,68.33
2022-09-06T20:59:04.850Z,68.47
2022-09-06T21:01:36.115Z,68.53
2022-09-06T21:04:06.444Z,68.86
2022-09-06T21:06:36.350Z,69.20
2022-09-06T21:09:13.478Z,69.24
2022-09-06T21:11:41.381Z,69.37
2022-09-06T21:14:09.988Z,69.65
2022-09-06T21:16:37.853Z,69.78
2022-09-06T21:19:08.995Z,69.97
2022-09-06T21:21:37.099Z,70.48
2022-09-06T21:24:07.082Z,70.39
2022-09-06T21:26:34.331Z,70.54
2022-09-06T21:29:01.620Z,70.59
2022-09-06T21:31:32.338Z,70.71
2022-09-06T21:34:07.415Z,70.86
2022-09-06T21:36:37.440Z,70.90
2022-09-06T21:39:09.687Z,71.07
2022-09-06T21:41:42.507Z,71.32
2022-09-06T21:44:10.551Z,71.29
2022-09-06T21:46:39.555Z,71.16
2022-09-06T21:49:10.422Z,71.08
2022-09-06T21:51:38.862Z,71.26
2022-09-06T21:54:06.315Z,71.27
2022-09-06T21:56:38.459Z,71.29
2022-09-06T21:59:06.578Z,71.38
2022-09-06T22:01:35.691Z,71.33
2022-09-06T22:04:03.707Z,71.44
2022-09-06T22:06:32.609Z,71.37
2022-09-06T22:09:03.709Z,71.21
2022-09-06T22:11:34.045Z,71.57
2022-09-06T22:14:07.072Z,71.40
2022-09-06T22:16:37.598Z,71.55
2022-09-06T22:19:06.846Z,71.47
2022-09-06T22:21:34.926Z,71.56
2022-09-06T22:24:06.439Z,71.61
2022-09-06T22:26:36.742Z,71.44
2022-09-06T22:29:07.163Z,71.62
2022-09-06T22:31:35.722Z,71.54
2022-09-06T22:34:03.386Z,71.48
2022-09-06T22:36:33.806Z,71.28
2022-09-06T22:39:00.646Z,71.46
2022-09-06T22:41:31.663Z,71.31
2022-09-06T22:44:02.415Z,71.42
2022-09-06T22:46:30.160Z,71.42
2022-09-06T22:48:57.344Z,71.30
2022-09-06T22:51:24.396Z,71.34
2022-09-06T22:53:51.261Z,71.33
2022-09-06T22:56:18.420Z,71.24
2022-09-06T22:58:45.292Z,71.38
2022-09-06T23:01:15.376Z,71.28
2022-09-06T23:03:43.052Z,71.44
2022-09-06T23:06:10.917Z,71.42
2022-09-06T23:08:40.591Z,71.63
2022-09-06T23:11:13.766Z,71.99
2022-09-06T23:13:44.072Z,72.04
2022-09-06T23:16:15.474Z,71.98
2022-09-06T23:18:42.901Z,72.23
2022-09-06T23:21:17.474Z,72.39
2022-09-06T23:23:45.455Z,72.50
2022-09-06T23:26:15.975Z,72.75
2022-09-06T23:28:43.616Z,72.72
2022-09-06T23:31:14.306Z,73.13
2022-09-06T23:33:42.384Z,72.89
2022-09-06T23:36:13.278Z,73.24
2022-09-06T23:38:42.023Z,73.56
2022-09-06T23:41:10.448Z,73.59
2022-09-06T23:43:38.562Z,73.53
2022-09-06T23:46:05.401Z,73.92
2022-09-06T23:48:32.460Z,74.24
2022-09-06T23:50:59.805Z,74.50
2022-09-06T23:53:26.907Z,74.46
2022-09-06T23:55:53.812Z,74.38
2022-09-06T23:58:21.243Z,74.62
